createdAt,value
2023-04-02T00:02:22.367Z,95981.80
2023-04-02T00:05:19.670Z,95982.41
2023-04-02T00:07:50.479Z,95980.15
2023-04-02T00:10:34.954Z,95980.58
2023-04-02T00:13:11.388Z,95980.52
2023-04-02T00:15:41.643Z,95977.10
2023-04-02T00:18:19.447Z,95974.42
2023-04-02T00:20:53.151Z,95977.98
2023-04-02T00:23:21.030Z,95978.96
2023-04-02T00:25:48.863Z,95981.90
2023-04-02T00:28:22.421Z,95986.62
2023-04-02T00:30:58.303Z,95986.40
2023-04-02T00:33:30.419Z,95985.55
2023-04-02T00:35:58.610Z,95984.85
2023-04-02T00:38:30.308Z,95978.96
2023-04-02T00:41:07.761Z,95979.84
2023-04-02T00:43:38.521Z,95977.67
2023-04-02T00:46:15.467Z,95975.58
2023-04-02T00:48:46.945Z,95981.86
2023-04-02T00:51:19.778Z,95979.94
2023-04-02T00:53:49.506Z,95979.71
2023-04-02T00:56:29.195Z,95978.60
2023-04-02T00:58:58.369Z,95982.06
2023-04-02T01:01:29.852Z,95986.30
2023-04-02T01:03:59.927Z,95986.13
2023-04-02T01:06:37.372Z,95985.33
2023-04-02T01:09:37.864Z,95987.13
2023-04-02T01:12:31.949Z,95989.50
2023-04-02T01:15:14.982Z,95991.36
2023-04-02T01:18:07.740Z,95995.58
2023-04-02T01:20:47.875Z,96001.56
2023-04-02T01:23:29.449Z,95999.39
2023-04-02T01:26:17.570Z,96002.10
2023-04-02T01:28:57.642Z,96002.70
2023-04-02T01:31:27.537Z,96005.29
2023-04-02T01:33:56.476Z,96006.54
2023-04-02T01:36:52.121Z,96009.27
2023-04-02T01:39:39.978Z,96010.77
2023-04-02T01:42:13.726Z,96013.47
2023-04-02T01:44:52.305Z,96013.63
2023-04-02T01:47:29.068Z,96013.60
2023-04-02T01:50:01.553Z,96018.02
2023-04-02T01:52:41.228Z,96016.81
2023-04-02T01:55:13.256Z,96013.45
2023-04-02T01:57:44.969Z,96015.22
2023-04-02T02:00:17.622Z,96017.62
2023-04-02T02:02:49.774Z,96018.61
2023-04-02T02:05:23.073Z,96019.99
2023-04-02T02:07:52.418Z,96021.95
2023-04-02T02:10:39.009Z,96025.50
2023-04-02T02:13:07.470Z,96022.42
2023-04-02T02:15:36.576Z,96024.36
2023-04-02T02:18:07.904Z,96027.17
2023-04-02T02:20:36.368Z,96030.56
2023-04-02T02:23:05.643Z,96028.40
2023-04-02T02:25:36.464Z,96028.39
2023-04-02T02:28:26.260Z,96030.04
2023-04-02T02:31:01.404Z,96029.52
2023-04-02T02:33:37.300Z,96030.02
2023-04-02T02:36:14.305Z,96027.36
2023-04-02T02:39:05.120Z,96028.39
2023-04-02T02:41:45.246Z,96031.23
2023-04-02T02:44:23.851Z,96034.61
2023-04-02T02:47:00.327Z,96037.17
2023-04-02T02:49:36.207Z,96036.70
2023-04-02T02:52:16.351Z,96039.02
2023-04-02T02:54:49.887Z,96044.23
2023-04-02T02:57:26.290Z,96041.73
2023-04-02T02:59:57.715Z,96041.94
2023-04-02T03:02:27.676Z,96043.38
2023-04-02T03:04:56.628Z,96046.29
2023-04-02T03:07:27.556Z,96049.14
2023-04-02T03:10:15.373Z,96044.05
2023-04-02T03:12:51.756Z,96050.66
2023-04-02T03:15:59.654Z,96053.73
2023-04-02T03:18:30.520Z,96056.72
2023-04-02T03:21:06.910Z,96058.14
2023-04-02T03:23:42.835Z,96060.77
2023-04-02T03:26:22.887Z,96060.01
2023-04-02T03:28:59.688Z,96060.62
2023-04-02T03:32:00.758Z,96064.78
2023-04-02T03:34:33.052Z,96070.65
2023-04-02T03:37:22.788Z,96077.95
2023-04-02T03:40:28.254Z,96079.23
2023-04-02T03:43:24.245Z,96083.30
2023-04-02T03:45:59.464Z,96084.33
2023-04-02T03:48:37.291Z,96081.58
2023-04-02T03:51:17.249Z,96085.39
2023-04-02T03:53:46.492Z,96085.51
2023-04-02T03:56:41.457Z,96089.94
2023-04-02T03:59:27.839Z,96089.36
2023-04-02T04:02:19.519Z,96092.27
2023-04-02T04:04:50.490Z,96097.11
2023-04-02T04:07:35.841Z,96095.36
2023-04-02T04:10:06.519Z,96099.11
2023-04-02T04:12:43.649Z,96097.66
2023-04-02T04:15:37.688Z,96101.58
2023-04-02T04:18:34.944Z,96100.86
2023-04-02T04:21:31.414Z,96104.62
2023-04-02T04:24:07.992Z,96106.23
2023-04-02T04:26:39.690Z,96114.16
2023-04-02T04:29:33.383Z,96114.48
2023-04-02T04:32:34.116Z,96118.48
2023-04-02T04:35:17.587Z,96122.98
2023-04-02T04:37:58.808Z,96125.37
2023-04-02T04:40:31.389Z,96127.08
2023-04-02T04:43:06.100Z,96126.67
2023-04-02T04:45:46.114Z,96126.79
2023-04-02T04:48:26.825Z,96130.58
2023-04-02T04:51:06.096Z,96129.34
2023-04-02T04:53:41.093Z,96132.86
2023-04-02T04:56:18.634Z,96136.08
2023-04-02T04:58:59.532Z,96137.40
2023-04-02T05:01:34.562Z,96143.16
2023-04-02T05:04:26.991Z,96146.36
2023-04-02T05:07:06.021Z,96149.33
2023-04-02T05:09:40.126Z,96147.70
2023-04-02T05:12:26.612Z,96151.02
2023-04-02T05:15:00.904Z,96151.17
2023-04-02T05:17:36.177Z,96159.37
2023-04-02T05:20:16.560Z,96159.02
2023-04-02T05:22:56.497Z,96160.91
2023-04-02T05:25:30.396Z,96161.45
2023-04-02T05:28:16.209Z,96164.44
2023-04-02T05:30:46.829Z,96167.90
2023-04-02T05:33:27.866Z,96170.25
2023-04-02T05:36:07.467Z,96172.45
2023-04-02T05:38:37.925Z,96173.83
2023-04-02T05:41:27.041Z,96177.27
2023-04-02T05:44:00.009Z,96177.30
2023-04-02T05:46:33.958Z,96177.93
2023-04-02T05:49:07.212Z,96178.34
2023-04-02T05:51:49.495Z,96180.38
2023-04-02T05:54:29.361Z,96184.48
2023-04-02T05:57:08.013Z,96182.95
2023-04-02T05:59:44.811Z,96187.38
2023-04-02T06:02:36.695Z,96186.85
2023-04-02T06:05:19.126Z,96193.23
2023-04-02T06:07:55.557Z,96195.94
2023-04-02T06:10:29.446Z,96198.33
2023-04-02T06:13:04.478Z,96198.40
2023-04-02T06:15:35.403Z,96195.49
2023-04-02T06:18:14.194Z,96193.61
2023-04-02T06:20:41.976Z,96200.38
2023-04-02T06:23:18.103Z,96199.30
2023-04-02T06:26:09.941Z,96200.83
2023-04-02T06:28:47.090Z,96205.73
2023-04-02T06:31:20.899Z,96208.32
2023-04-02T06:33:52.386Z,96209.73
2023-04-02T06:36:20.917Z,96212.72
2023-04-02T06:38:50.958Z,96214.32
2023-04-02T06:41:23.987Z,96217.21
2023-04-02T06:44:00.504Z,96214.80
2023-04-02T06:46:31.487Z,96215.21
2023-04-02T06:49:09.447Z,96214.88
2023-04-02T06:51:40.487Z,96216.08
2023-04-02T06:54:15.134Z,96218.01
2023-04-02T06:56:51.658Z,96220.45
2023-04-02T06:59:20.110Z,96222.58
2023-04-02T07:02:33.212Z,96225.17
2023-04-02T07:05:09.431Z,96229.30
2023-04-02T07:07:37.377Z,96230.17
2023-04-02T07:10:07.035Z,96228.47
2023-04-02T07:12:35.046Z,96230.55
2023-04-02T07:15:03.938Z,96234.38
2023-04-02T07:17:32.090Z,96234.71
2023-04-02T07:20:00.140Z,96238.05
2023-04-02T07:22:28.116Z,96236.74
2023-04-02T07:24:56.347Z,96239.46
2023-04-02T07:27:24.355Z,96244.81
2023-04-02T07:29:52.258Z,96249.30
2023-04-02T07:32:20.044Z,96252.82
2023-04-02T07:34:49.022Z,96253.33
2023-04-02T07:37:17.155Z,96255.48
2023-04-02T07:39:45.036Z,96257.18
2023-04-02T07:42:12.924Z,96256.92
2023-04-02T07:44:40.822Z,96259.05
2023-04-02T07:47:10.715Z,96264.05
2023-04-02T07:49:38.555Z,96264.23
2023-04-02T07:52:06.920Z,96262.34
2023-04-02T07:54:35.942Z,96267.19
2023-04-02T07:57:04.065Z,96269.11
2023-04-02T07:59:32.896Z,96267.73
2023-04-02T08:02:01.039Z,96267.48
2023-04-02T08:04:28.979Z,96266.13
2023-04-02T08:06:56.875Z,96265.35
2023-04-02T08:09:24.697Z,96265.48
2023-04-02T08:11:52.625Z,96268.83
2023-04-02T08:14:20.463Z,96268.02
2023-04-02T08:16:55.207Z,96268.20
2023-04-02T08:19:24.362Z,96266.90
2023-04-02T08:21:53.168Z,96267.85
2023-04-02T08:24:22.018Z,96271.56
2023-04-02T08:26:51.385Z,96271.02
2023-04-02T08:29:19.982Z,96276.23
2023-04-02T08:31:48.259Z,96278.11
2023-04-02T08:34:16.338Z,96282.48
2023-04-02T08:36:45.586Z,96285.29
2023-04-02T08:39:14.073Z,96285.09
2023-04-02T08:42:03.266Z,96284.34
2023-04-02T08:44:58.086Z,96284.89
2023-04-02T08:47:29.933Z,96287.80
2023-04-02T08:50:01.809Z,96292.02
2023-04-02T08:52:36.759Z,96291.84
2023-04-02T08:55:33.637Z,96292.84
2023-04-02T08:58:21.978Z,96298.16
2023-04-02T09:00:54.272Z,96298.57
2023-04-02T09:03:38.770Z,96302.69
2023-04-02T09:06:10.066Z,96298.90
2023-04-02T09:08:39.674Z,96298.52
2023-04-02T09:11:41.749Z,96299.14
2023-04-02T09:14:21.137Z,96297.66
2023-04-02T09:17:00.735Z,96301.16
2023-04-02T09:19:39.046Z,96300.24
2023-04-02T09:22:20.560Z,96300.69
2023-04-02T09:24:59.994Z,96299.33
2023-04-02T09:27:31.517Z,96308.85
2023-04-02T09:30:06.741Z,96307.37
2023-04-02T09:32:49.598Z,96308.88
2023-04-02T09:35:26.581Z,96311.86
2023-04-02T09:38:10.396Z,96311.97
2023-04-02T09:40:50.672Z,96309.45
2023-04-02T09:43:21.818Z,96312.30
2023-04-02T09:46:23.519Z,96312.42
2023-04-02T09:49:03.811Z,96312.88
2023-04-02T09:51:34.735Z,96314.49
2023-04-02T09:54:02.865Z,96314.17
2023-04-02T09:56:32.864Z,96314.18
2023-04-02T09:59:12.707Z,96314.19
2023-04-02T10:01:57.420Z,96312.68
2023-04-02T10:04:39.326Z,96315.13
2023-04-02T10:07:07.308Z,96315.73
2023-04-02T10:09:38.591Z,96314.72
2023-04-02T10:12:13.527Z,96314.39
2023-04-02T10:14:46.307Z,96313.81
2023-04-02T10:17:27.604Z,96316.14
2023-04-02T10:20:02.604Z,96316.28
2023-04-02T10:22:30.921Z,96317.81
2023-04-02T10:24:59.569Z,96313.15
2023-04-02T10:27:37.785Z,96314.95
2023-04-02T10:30:22.429Z,96311.16
2023-04-02T10:33:03.546Z,96310.20
2023-04-02T10:35:56.409Z,96313.52
2023-04-02T10:38:35.092Z,96310.19
2023-04-02T10:41:15.523Z,96311.16
2023-04-02T10:43:46.620Z,96314.59
2023-04-02T10:46:23.654Z,96312.71
2023-04-02T10:49:02.375Z,96312.30
2023-04-02T10:51:30.571Z,96317.08
2023-04-02T10:54:22.797Z,96317.69
2023-04-02T10:56:55.441Z,96316.02
2023-04-02T10:59:35.568Z,96320.14
2023-04-02T11:02:16.807Z,96321.20
2023-04-02T11:04:46.740Z,96318.54
2023-04-02T11:07:20.087Z,96320.59
2023-04-02T11:09:52.424Z,96323.77
2023-04-02T11:12:46.622Z,96325.41
2023-04-02T11:15:19.122Z,96326.67
2023-04-02T11:17:48.205Z,96326.91
2023-04-02T11:21:07.796Z,96326.98
2023-04-02T11:23:57.145Z,96320.89
2023-04-02T11:26:39.207Z,96324.48
2023-04-02T11:29:15.762Z,96322.73
2023-04-02T11:31:45.946Z,96321.77
2023-04-02T11:34:56.712Z,96325.33
2023-04-02T11:37:45.598Z,96326.52
2023-04-02T11:40:16.518Z,96325.25
2023-04-02T11:42:45.423Z,96329.54
2023-04-02T11:45:28.579Z,96332.58
2023-04-02T11:48:23.055Z,96337.58
2023-04-02T11:50:51.128Z,96340.81
2023-04-02T11:53:35.857Z,96343.96
2023-04-02T11:56:21.469Z,96343.45
2023-04-02T11:59:07.014Z,96345.45
2023-04-02T12:01:55.953Z,96339.28
2023-04-02T12:05:04.468Z,96341.71
2023-04-02T12:07:52.407Z,96342.70
2023-04-02T12:10:23.268Z,96343.27
2023-04-02T12:12:51.845Z,96341.69
2023-04-02T12:15:41.379Z,96342.38
2023-04-02T12:18:24.345Z,96345.34
2023-04-02T12:20:56.806Z,96341.63
2023-04-02T12:23:31.413Z,96344.17
2023-04-02T12:26:07.487Z,96341.48
2023-04-02T12:28:38.112Z,96341.70
2023-04-02T12:31:09.163Z,96340.61
2023-04-02T12:33:38.805Z,96341.11
2023-04-02T12:36:20.195Z,96338.50
2023-04-02T12:38:56.808Z,96343.13
2023-04-02T12:41:33.422Z,96343.88
2023-04-02T12:44:02.266Z,96344.17
2023-04-02T12:46:32.898Z,96339.77
2023-04-02T12:49:06.746Z,96338.10
2023-04-02T12:51:37.917Z,96336.90
2023-04-02T12:54:06.212Z,96337.71
2023-04-02T12:56:34.308Z,96337.19
2023-04-02T12:59:02.233Z,96335.35
2023-04-02T13:01:32.068Z,96334.45
2023-04-02T13:04:04.571Z,96336.29
2023-04-02T13:06:34.188Z,96337.34
2023-04-02T13:09:05.107Z,96337.10
2023-04-02T13:11:42.428Z,96339.55
2023-04-02T13:14:19.901Z,96337.25
2023-04-02T13:16:47.957Z,96337.39
2023-04-02T13:19:31.540Z,96340.58
2023-04-02T13:22:01.872Z,96343.57
2023-04-02T13:24:32.735Z,96345.46
2023-04-02T13:27:03.124Z,96341.02
2023-04-02T13:29:36.009Z,96344.61
2023-04-02T13:32:06.835Z,96343.50
2023-04-02T13:34:34.721Z,96345.91
2023-04-02T13:37:02.609Z,96347.38
2023-04-02T13:39:30.596Z,96347.51
2023-04-02T13:42:01.762Z,96345.97
2023-04-02T13:44:32.258Z,96345.67
2023-04-02T13:47:00.767Z,96344.21
2023-04-02T13:49:29.151Z,96344.89
2023-04-02T13:52:04.364Z,96347.27
2023-04-02T13:54:46.646Z,96349.11
2023-04-02T13:57:15.203Z,96349.09
2023-04-02T13:59:43.188Z,96350.52
2023-04-02T14:02:29.344Z,96350.55
2023-04-02T14:05:27.230Z,96350.38
2023-04-02T14:08:13.295Z,96351.20
2023-04-02T14:11:01.036Z,96348.77
2023-04-02T14:13:37.190Z,96350.39
2023-04-02T14:16:31.429Z,96352.29
2023-04-02T14:19:10.236Z,96354.64
2023-04-02T14:21:56.295Z,96355.38
2023-04-02T14:24:39.061Z,96356.07
2023-04-02T14:27:28.733Z,96358.49
2023-04-02T14:30:39.642Z,96359.45
2023-04-02T14:33:23.931Z,96357.90
2023-04-02T14:35:55.099Z,96356.88
2023-04-02T14:38:50.784Z,96358.39
2023-04-02T14:41:50.152Z,96357.95
2023-04-02T14:44:23.510Z,96357.02
2023-04-02T14:46:59.227Z,96356.48
2023-04-02T14:49:33.298Z,96353.17
2023-04-02T14:52:07.239Z,96356.25
2023-04-02T14:54:38.675Z,96356.27
2023-04-02T14:57:18.919Z,96356.66
2023-04-02T14:59:58.876Z,96354.54
2023-04-02T15:02:46.278Z,96358.27
2023-04-02T15:05:20.351Z,96361.57
2023-04-02T15:08:15.589Z,96360.95
2023-04-02T15:11:02.148Z,96361.96
2023-04-02T15:13:54.542Z,96361.29
2023-04-02T15:16:27.284Z,96364.26
2023-04-02T15:18:57.434Z,96364.95
2023-04-02T15:21:55.761Z,96364.63
2023-04-02T15:24:40.346Z,96364.39
2023-04-02T15:27:25.226Z,96362.66
2023-04-02T15:30:09.035Z,96364.59
2023-04-02T15:32:39.931Z,96363.27
2023-04-02T15:35:32.493Z,96365.47
2023-04-02T15:38:35.637Z,96368.93
2023-04-02T15:41:23.533Z,96373.80
2023-04-02T15:44:03.542Z,96380.13
2023-04-02T15:46:46.800Z,96380.78
2023-04-02T15:49:27.347Z,96381.13
2023-04-02T15:52:26.782Z,96386.56
2023-04-02T15:55:13.022Z,96392.33
2023-04-02T15:58:19.243Z,96396.29
2023-04-02T16:00:52.114Z,96401.75
2023-04-02T16:03:38.775Z,96404.73
2023-04-02T16:06:27.232Z,96406.78
2023-04-02T16:09:20.221Z,96408.80
2023-04-02T16:11:56.009Z,96412.27
2023-04-02T16:14:26.353Z,96413.59
2023-04-02T16:17:10.875Z,96416.67
2023-04-02T16:19:51.258Z,96413.69
2023-04-02T16:22:29.098Z,96420.60
2023-04-02T16:25:20.706Z,96419.67
2023-04-02T16:28:03.435Z,96419.34
2023-04-02T16:30:56.789Z,96420.48
2023-04-02T16:33:37.001Z,96424.70
2023-04-02T16:36:27.041Z,96432.03
2023-04-02T16:39:13.920Z,96433.38
2023-04-02T16:41:52.143Z,96440.38
2023-04-02T16:44:57.837Z,96445.91
2023-04-02T16:47:59.739Z,96450.90
2023-04-02T16:50:33.454Z,96448.56
2023-04-02T16:53:21.230Z,96450.36
2023-04-02T16:56:03.222Z,96455.04
2023-04-02T16:58:31.042Z,96458.42
2023-04-02T17:01:20.543Z,96459.39
2023-04-02T17:04:16.012Z,96465.44
2023-04-02T17:06:55.920Z,96462.49
2023-04-02T17:09:26.708Z,96468.70
2023-04-02T17:12:41.343Z,96470.02
2023-04-02T17:17:58.536Z,96476.98
2023-04-02T17:20:26.544Z,96479.73
2023-04-02T17:22:56.111Z,96484.39
2023-04-02T17:25:31.676Z,96482.02
2023-04-02T17:28:01.702Z,96483.73
2023-04-02T17:30:43.571Z,96488.83
2023-04-02T17:33:14.328Z,96489.73
2023-04-02T17:35:53.569Z,96493.02
2023-04-02T17:38:27.348Z,96497.05
2023-04-02T17:41:02.895Z,96500.11
2023-04-02T17:43:33.761Z,96506.06
2023-04-02T17:46:18.129Z,96508.15
2023-04-02T17:48:48.447Z,96508.40
2023-04-02T17:51:31.776Z,96512.19
2023-04-02T17:54:27.834Z,96515.73
2023-04-02T17:56:58.673Z,96514.70
2023-04-02T17:59:44.194Z,96514.80
2023-04-02T18:02:28.305Z,96516.81
2023-04-02T18:05:13.090Z,96525.80
2023-04-02T18:07:46.998Z,96535.33
2023-04-02T18:10:30.637Z,96530.70
2023-04-02T18:13:07.517Z,96535.50
2023-04-02T18:15:55.490Z,96536.83
2023-04-02T18:18:41.974Z,96541.35
2023-04-02T18:21:25.700Z,96544.61
2023-04-02T18:23:59.704Z,96546.55
2023-04-02T18:26:42.862Z,96546.02
2023-04-02T18:29:16.804Z,96544.04
2023-04-02T18:31:47.584Z,96544.94
2023-04-02T18:34:30.718Z,96550.23
2023-04-02T18:37:22.621Z,96548.93
2023-04-02T18:40:30.732Z,96551.55
2023-04-02T18:43:17.229Z,96550.99
2023-04-02T18:46:09.395Z,96557.80
2023-04-02T18:48:59.044Z,96556.98
2023-04-02T18:51:32.169Z,96559.48
2023-04-02T18:54:08.968Z,96560.79
2023-04-02T18:56:40.629Z,96562.42
2023-04-02T18:59:35.996Z,96562.41
2023-04-02T19:02:38.951Z,96566.38
2023-04-02T19:05:20.612Z,96564.86
2023-04-02T19:07:52.593Z,96564.13
2023-04-02T19:10:31.282Z,96569.02
2023-04-02T19:12:59.250Z,96569.17
2023-04-02T19:15:43.422Z,96566.79
2023-04-02T19:18:28.907Z,96566.01
2023-04-02T19:21:04.525Z,96569.33
2023-04-02T19:23:50.667Z,96569.89
2023-04-02T19:26:24.145Z,96575.73
2023-04-02T19:29:19.746Z,96578.39
2023-04-02T19:32:05.090Z,96581.27
2023-04-02T19:34:57.336Z,96585.52
2023-04-02T19:37:36.790Z,96586.20
2023-04-02T19:40:11.807Z,96581.02
2023-04-02T19:42:48.345Z,96583.02
2023-04-02T19:45:22.384Z,96584.85
2023-04-02T19:47:50.748Z,96585.52
2023-04-02T19:50:18.662Z,96593.37
2023-04-02T19:52:54.654Z,96597.55
2023-04-02T19:55:22.518Z,96602.71
2023-04-02T19:57:51.396Z,96607.22
2023-04-02T20:00:21.454Z,96615.96
2023-04-02T20:02:49.461Z,96618.98
2023-04-02T20:05:17.411Z,96619.84
2023-04-02T20:07:45.435Z,96623.63
2023-04-02T20:10:13.474Z,96627.17
2023-04-02T20:12:41.474Z,96626.70
2023-04-02T20:15:09.796Z,96629.10
2023-04-02T20:17:37.789Z,96627.77
2023-04-02T20:20:07.047Z,96628.52
2023-04-02T20:22:34.945Z,96628.91
2023-04-02T20:25:02.893Z,96632.70
2023-04-02T20:27:31.270Z,96629.82
2023-04-02T20:29:59.088Z,96629.33
2023-04-02T20:32:27.092Z,96626.64
2023-04-02T20:34:56.373Z,96630.27
2023-04-02T20:37:24.391Z,96631.05
2023-04-02T20:39:52.959Z,96630.73
2023-04-02T20:42:21.210Z,96626.98
2023-04-02T20:44:49.074Z,96627.25
2023-04-02T20:47:17.492Z,96627.52
2023-04-02T20:49:45.416Z,96627.55
2023-04-02T20:52:13.278Z,96625.14
2023-04-02T20:54:41.232Z,96621.69
2023-04-02T20:57:09.087Z,96626.09
2023-04-02T20:59:37.043Z,96625.15
2023-04-02T21:02:04.905Z,96626.38
2023-04-02T21:04:32.870Z,96628.35
2023-04-02T21:07:00.947Z,96632.80
2023-04-02T21:09:28.892Z,96630.01
2023-04-02T21:11:56.777Z,96631.81
2023-04-02T21:14:24.694Z,96634.42
2023-04-02T21:16:52.655Z,96635.16
2023-04-02T21:19:20.804Z,96634.27
2023-04-02T21:21:48.771Z,96633.94
2023-04-02T21:24:17.243Z,96632.33
2023-04-02T21:26:46.639Z,96631.48
2023-04-02T21:29:14.641Z,96629.19
2023-04-02T21:31:43.283Z,96628.66
2023-04-02T21:34:16.130Z,96624.92
2023-04-02T21:36:47.206Z,96630.46
2023-04-02T21:39:23.553Z,96631.44
2023-04-02T21:41:53.350Z,96633.02
2023-04-02T21:44:23.326Z,96635.80
2023-04-02T21:46:53.591Z,96634.83
2023-04-02T21:49:23.224Z,96634.30
2023-04-02T21:51:51.826Z,96632.76
2023-04-02T21:54:20.339Z,96634.34
2023-04-02T21:56:49.154Z,96633.41
2023-04-02T21:59:18.109Z,96632.40
2023-04-02T22:01:48.680Z,96634.52
2023-04-02T22:04:22.640Z,96637.94
2023-04-02T22:06:51.025Z,96634.77
2023-04-02T22:09:24.404Z,96636.36
2023-04-02T22:11:55.590Z,96638.31
2023-04-02T22:14:23.562Z,96639.13
2023-04-02T22:16:52.340Z,96634.66
2023-04-02T22:19:20.981Z,96638.64
2023-04-02T22:21:49.142Z,96638.23
2023-04-02T22:24:18.996Z,96639.58
2023-04-02T22:26:47.229Z,96639.95
2023-04-02T22:29:15.758Z,96641.73
2023-04-02T22:31:43.882Z,96641.16
2023-04-02T22:34:12.056Z,96638.44
2023-04-02T22:36:40.071Z,96641.09
2023-04-02T22:39:10.457Z,96643.97
2023-04-02T22:41:38.659Z,96645.92
2023-04-02T22:44:06.967Z,96650.11
2023-04-02T22:46:35.169Z,96648.98
2023-04-02T22:49:03.485Z,96648.81
2023-04-02T22:51:31.611Z,96645.85
2023-04-02T22:53:59.460Z,96648.08
2023-04-02T22:56:31.882Z,96649.00
2023-04-02T22:59:00.771Z,96652.02
2023-04-02T23:01:32.064Z,96653.07
2023-04-02T23:04:00.596Z,96652.48
2023-04-02T23:06:28.682Z,96656.43
2023-04-02T23:08:57.021Z,96658.73
2023-04-02T23:11:27.467Z,96662.42
2023-04-02T23:13:57.376Z,96663.60
2023-04-02T23:16:27.763Z,96666.98
2023-04-02T23:18:56.565Z,96668.40
2023-04-02T23:21:26.268Z,96668.59
2023-04-02T23:23:55.146Z,96667.71
2023-04-02T23:26:27.207Z,96668.85
2023-04-02T23:28:55.404Z,96669.61
2023-04-02T23:31:24.471Z,96668.98
2023-04-02T23:33:52.754Z,96670.67
2023-04-02T23:36:31.184Z,96670.02
2023-04-02T23:39:01.875Z,96672.23
2023-04-02T23:41:31.093Z,96672.39
2023-04-02T23:43:59.093Z,96677.05
2023-04-02T23:46:28.155Z,96679.30
2023-04-02T23:48:57.206Z,96679.91
2023-04-02T23:51:26.689Z,96683.64
2023-04-02T23:53:55.535Z,96682.85
2023-04-02T23:56:24.119Z,96681.58
2023-04-02T23:58:52.104Z,96683.29
